This demonstration page uses our WeatherBlox Daily Observations layout. Learn more.

36.19886, -115.1175

Hourly Observations for November 23, 2018

Temp ( °F °C ) Dew Point ( °F °C ) Humidity (%) Winds ( mph kmh ) Pressure ( in mb ) Visibility ( mi km ) Precip ( " mm )
12:53 am 00:53 Clear 46 7.8 28 -2.2 50 50 NW 5 7 30.12 1020 10 16.09344 0 0
1:53 am 01:53 Clear 46 7.8 28 -2.2 50 50 NW 6 9 30.12 1020 10 16.09344 0 0
2:53 am 02:53 Clear 45 7.2 28 -2.2 52 52 NNW 6 9 30.12 1020 10 16.09344 0 0
3:53 am 03:53 Clear 45 7.2 28 -2.2 52 52 N 3 6 30.12 1020 10 16.09344 0 0
4:53 am 04:53 Clear 43 6.1 26 -3.3 51 51 NW 5 7 30.09 1019 10 16.09344 0 0
5:53 am 05:53 Clear 43 6.1 28 -2.2 56 56 N 6 9 30.12 1020 10 16.09344 0 0
6:53 am 06:53 Sunny 44 6.7 26 -3.3 49 49 NW 5 7 30.15 1021 10 16.09344 0 0
7:53 am 07:53 Sunny 50 10 29 -1.7 44 44 N 5 7 30.15 1021 10 16.09344 0 0
8:53 am 08:53 Sunny 53 11.7 31 -0.6 43 43 Calm 30.15 1021 10 16.09344 0 0
9:53 am 09:53 Sunny 55 12.8 31 -0.6 40 40 Calm 30.15 1021 10 16.09344 0 0
10:53 am 10:53 Sunny 55 12.8 31 -0.6 40 40 SE 3 6 30.15 1021 10 16.09344 0 0
11:53 am 11:53 Sunny 57 13.9 31 -0.6 37 37 Calm 30.09 1019 10 16.09344 0 0
12:53 pm 12:53 Sunny 60 15.6 31 -0.6 33 33 Calm 30.06 1018 10 16.09344 0 0
1:53 pm 13:53 Sunny 61 16.1 31 -0.6 32 32 E 7 11 30.03 1017 10 16.09344 0 0
2:53 pm 14:53 Sunny 61 16.1 30 -1.1 31 31 ESE 7 11 30 1016 10 16.09344 0 0
3:53 pm 15:53 Sunny 61 16.1 30 -1.1 31 31 ESE 5 7 30 1016 10 16.09344 0 0
4:53 pm 16:53 Clear 58 14.4 29 -1.7 33 33 Calm 30 1016 10 16.09344 0 0
5:53 pm 17:53 Clear 55 12.8 29 -1.7 37 37 Calm 30 1016 10 16.09344 0 0
6:53 pm 18:53 Clear 54 12.2 31 -0.6 42 42 WNW 6 9 30 1016 10 16.09344 0 0
7:53 pm 19:53 Clear 52 11.1 31 -0.6 45 45 NNW 6 9 30 1016 10 16.09344 0 0
8:53 pm 20:53 Clear 50 10 30 -1.1 46 46 NNW 5 7 29.97 1015 10 16.09344 0 0
9:53 pm 21:53 Clear 49 9.4 31 -0.6 50 50 NNW 7 11 30 1016 10 16.09344 0 0
10:53 pm 22:53 Clear 48 8.9 31 -0.6 52 52 N 7 11 29.97 1015 10 16.09344 0 0
11:53 pm 23:53 Clear 48 8.9 31 -0.6 52 52 N 7 11 29.97 1015 10 16.09344 0 0

Powered by AerisWeather